Airfield :
LOGIN :

Register | Disclaimer

   EN    FR    IT 

 










Legend :    VFR   Marginal VFR   IFR   Intensive IFR   Very Intensive IFR
Visi :
Ceiling :
>= 8 km
>= 3000ft
5 to 8 km
1000 to 3000 ft
1500m to 5 km
500 to 1000 ft
800 to 1500m
200 to 500 ft
< 800m
< 200 ft
Symbols :   Thunderstorms  Fog  Heavy snow  Heavy precipitations  Wind > 20 kt
SIGMETs :     Misc.  Thunderstorms  Icing  Turbulence  Mountain Waves  Volcanic Ashes






- Airport Elevation : 121 ft
- IATA code : HUY


EGNJ - Humberside

CURRENT METAR :
  • 150920Z 26009KT 8000 SCT005 BKN009 OVC017 11/10 Q1002

EXPIRED METARs :
  • 150850Z 26009KT 8000 SCT005 BKN014 OVC017 11/10 Q1002
  • 150820Z 25008KT 8000 SCT005 BKN014 OVC017 11/10 Q1002
  • 150750Z 27006KT 8000 SCT007 BKN014 11/10 Q1002
  • 150720Z 26007KT 8000 -DZ SCT006 BKN010 10/10 Q1001
  • 150650Z 26008KT 8000 -DZ BKN007 10/10 Q1001

TAF AMD TAF EGNJ
Valid from the 15 at 09:00 until the 15 at 18:00 UTC


150902Z 1509/1518 27010KT 8000 BKN005
TEMPO 1509/1511 SCT005 BKN010
PROB30
TEMPO 1509/1511 SCT010
BECMG 1510/1513 21006KT
BECMG 1511/1514 9999 SCT020
PROB30
TEMPO 1514/1518 8000 BKN008
ATIS : +44 1652 682 020



MET'MAP, your aeronautical weather chart ! - Copyright ORBIFLY December 2007 - Disclaimer

ORBIFLY MET'MAP TEAM :

Programming & Development : Alexandra Zaïnal
Concept & Development : Baudouin d'Aumeries
Co-Development & Prog : Marc-Olivier Méhu
Technical & hardware support : Manuel Goepfert

Contact : metmap@orbifly.com




SOURCES & CREDITS :

   NOAA